createdAt,value
2023-05-19T00:00:39.887Z,6.95
2023-05-19T00:01:39.850Z,6.91
2023-05-19T00:02:40.014Z,6.95
2023-05-19T00:03:39.840Z,6.95
2023-05-19T00:04:39.800Z,6.91
2023-05-19T00:05:39.831Z,6.84
2023-05-19T00:06:39.765Z,6.83
2023-05-19T00:07:39.750Z,6.85
2023-05-19T00:08:39.735Z,6.71
2023-05-19T00:09:39.714Z,6.78
2023-05-19T00:10:39.702Z,6.74
2023-05-19T00:11:39.696Z,6.78
2023-05-19T00:12:39.678Z,6.66
2023-05-19T00:13:39.653Z,6.59
2023-05-19T00:14:39.637Z,6.60
2023-05-19T00:15:39.659Z,6.66
2023-05-19T00:16:39.672Z,6.57
2023-05-19T00:17:39.654Z,6.60
2023-05-19T00:18:39.585Z,6.63
2023-05-19T00:19:39.556Z,6.57
2023-05-19T00:20:39.541Z,6.56
2023-05-19T00:21:39.580Z,6.56
2023-05-19T00:22:39.504Z,6.60
2023-05-19T00:23:39.494Z,6.49
2023-05-19T00:24:39.475Z,6.57
2023-05-19T00:25:39.460Z,6.53
2023-05-19T00:26:39.444Z,6.53
2023-05-19T00:27:39.425Z,6.39
2023-05-19T00:28:39.435Z,6.44
2023-05-19T00:29:39.410Z,6.48
2023-05-19T00:30:39.388Z,6.48
2023-05-19T00:31:39.392Z,6.39
2023-05-19T00:32:39.403Z,6.42
2023-05-19T00:33:39.335Z,6.42
2023-05-19T00:34:39.322Z,6.41
2023-05-19T00:35:39.294Z,6.39
2023-05-19T00:36:39.292Z,6.37
2023-05-19T00:37:39.278Z,6.22
2023-05-19T00:38:39.265Z,6.26
2023-05-19T00:39:39.234Z,6.21
2023-05-19T00:40:39.215Z,6.16
2023-05-19T00:41:39.204Z,6.19
2023-05-19T00:42:39.181Z,6.13
2023-05-19T00:43:39.165Z,6.07
2023-05-19T00:44:39.157Z,6.10
2023-05-19T00:45:39.130Z,6.10
2023-05-19T00:46:39.184Z,6.03
2023-05-19T00:47:39.159Z,6.05
2023-05-19T00:48:39.082Z,5.90
2023-05-19T00:49:39.061Z,5.92
2023-05-19T00:50:39.049Z,5.95
2023-05-19T00:51:39.078Z,5.92
2023-05-19T00:52:39.025Z,5.92
2023-05-19T00:53:38.996Z,5.89
2023-05-19T00:54:39.189Z,5.87
2023-05-19T00:55:38.966Z,5.89
2023-05-19T00:56:38.956Z,5.83
2023-05-19T00:57:38.932Z,5.83
2023-05-19T00:58:38.916Z,5.80
2023-05-19T00:59:38.902Z,5.87
2023-05-19T01:00:38.944Z,5.82
2023-05-19T01:01:38.891Z,5.86
2023-05-19T01:02:38.960Z,5.87
2023-05-19T01:03:38.935Z,5.79
2023-05-19T01:04:38.833Z,5.89
2023-05-19T01:05:38.802Z,5.79
2023-05-19T01:06:38.783Z,5.80
2023-05-19T01:07:38.776Z,5.82
2023-05-19T01:08:38.751Z,5.80
2023-05-19T01:09:38.737Z,5.76
2023-05-19T01:10:38.722Z,5.80
2023-05-19T01:11:38.756Z,5.76
2023-05-19T01:12:38.717Z,5.71
2023-05-19T01:13:41.149Z,5.77
2023-05-19T01:14:38.655Z,5.68
2023-05-19T01:15:38.636Z,5.76
2023-05-19T01:16:38.668Z,5.69
2023-05-19T01:17:38.627Z,5.71
2023-05-19T01:18:38.634Z,5.69
2023-05-19T01:19:38.576Z,5.71
2023-05-19T01:20:38.595Z,5.62
2023-05-19T01:21:38.530Z,5.59
2023-05-19T01:22:38.527Z,5.57
2023-05-19T01:23:38.506Z,5.64
2023-05-19T01:24:38.489Z,5.59
2023-05-19T01:25:38.477Z,5.51
2023-05-19T01:26:38.450Z,5.57
2023-05-19T01:27:38.438Z,5.54
2023-05-19T01:28:38.423Z,5.53
2023-05-19T01:29:38.408Z,5.54
2023-05-19T01:30:38.384Z,5.53
2023-05-19T01:31:38.410Z,5.53
2023-05-19T01:32:38.399Z,5.49
2023-05-19T01:33:38.341Z,5.53
2023-05-19T01:34:38.314Z,5.54
2023-05-19T01:35:38.323Z,5.51
2023-05-19T01:36:38.304Z,5.43
2023-05-19T01:37:38.287Z,5.39
2023-05-19T01:38:38.254Z,5.40
2023-05-19T01:39:38.242Z,5.46
2023-05-19T01:40:38.230Z,5.28
2023-05-19T01:41:38.218Z,5.33
2023-05-19T01:42:38.188Z,5.29
2023-05-19T01:43:38.168Z,5.31
2023-05-19T01:44:38.161Z,5.28
2023-05-19T01:45:38.178Z,5.22
2023-05-19T01:46:38.128Z,5.32
2023-05-19T01:47:38.112Z,5.29
2023-05-19T01:48:38.118Z,5.24
2023-05-19T01:49:38.085Z,5.28
2023-05-19T01:50:38.056Z,5.26
2023-05-19T01:51:38.036Z,5.17
2023-05-19T01:52:38.028Z,5.28
2023-05-19T01:53:38.005Z,5.31
2023-05-19T01:54:37.988Z,5.19
2023-05-19T01:55:37.971Z,5.19
2023-05-19T01:56:37.950Z,5.26
2023-05-19T01:57:37.937Z,5.17
2023-05-19T01:58:37.917Z,5.26
2023-05-19T01:59:37.901Z,5.21
2023-05-19T02:00:37.889Z,5.14
2023-05-19T02:01:37.941Z,5.19
2023-05-19T02:02:37.869Z,5.16
2023-05-19T02:03:37.864Z,5.13
2023-05-19T02:04:37.867Z,5.03
2023-05-19T02:05:37.800Z,5.17
2023-05-19T02:06:37.788Z,5.11
2023-05-19T02:07:37.764Z,5.14
2023-05-19T02:08:37.752Z,5.07
2023-05-19T02:09:37.741Z,5.07
2023-05-19T02:10:37.722Z,5.06
2023-05-19T02:11:37.695Z,4.95
2023-05-19T02:12:37.725Z,4.95
2023-05-19T02:13:37.675Z,4.95
2023-05-19T02:14:37.655Z,4.96
2023-05-19T02:15:37.675Z,4.98
2023-05-19T02:16:37.636Z,4.90
2023-05-19T02:17:37.636Z,4.93
2023-05-19T02:18:37.600Z,4.92
2023-05-19T02:19:37.555Z,4.88
2023-05-19T02:20:37.550Z,4.80
2023-05-19T02:21:37.524Z,4.90
2023-05-19T02:22:37.508Z,4.98
2023-05-19T02:23:37.489Z,4.92
2023-05-19T02:24:37.469Z,4.92
2023-05-19T02:25:37.452Z,4.86
2023-05-19T02:26:37.437Z,4.79
2023-05-19T02:27:37.420Z,4.79
2023-05-19T02:28:37.404Z,4.80
2023-05-19T02:29:37.397Z,4.80
2023-05-19T02:30:37.367Z,4.76
2023-05-19T02:31:37.388Z,4.79
2023-05-19T02:32:37.483Z,4.79
2023-05-19T02:33:37.321Z,4.77
2023-05-19T02:34:37.309Z,4.74
2023-05-19T02:35:37.281Z,4.76
2023-05-19T02:36:37.278Z,4.67
2023-05-19T02:37:37.251Z,4.76
2023-05-19T02:38:37.230Z,4.71
2023-05-19T02:39:37.215Z,4.66
2023-05-19T02:40:37.193Z,4.70
2023-05-19T02:41:37.181Z,4.67
2023-05-19T02:42:37.167Z,4.69
2023-05-19T02:43:37.170Z,4.67
2023-05-19T02:44:37.131Z,4.66
2023-05-19T02:45:37.110Z,4.67
2023-05-19T02:46:37.150Z,4.63
2023-05-19T02:47:37.345Z,4.70
2023-05-19T02:48:37.059Z,4.59
2023-05-19T02:49:37.039Z,4.69
2023-05-19T02:50:37.023Z,4.58
2023-05-19T02:51:37.004Z,4.63
2023-05-19T02:52:36.998Z,4.61
2023-05-19T02:53:36.971Z,4.63
2023-05-19T02:54:36.961Z,4.59
2023-05-19T02:55:36.936Z,4.64
2023-05-19T02:56:36.929Z,4.56
2023-05-19T02:57:36.910Z,4.63
2023-05-19T02:58:36.888Z,4.58
2023-05-19T02:59:36.874Z,4.61
2023-05-19T03:00:36.858Z,4.66
2023-05-19T03:01:36.882Z,4.61
2023-05-19T03:02:36.882Z,4.67
2023-05-19T03:03:36.934Z,4.63
2023-05-19T03:04:36.784Z,4.63
2023-05-19T03:05:36.769Z,4.69
2023-05-19T03:06:36.755Z,4.67
2023-05-19T03:07:36.731Z,4.55
2023-05-19T03:08:36.721Z,4.52
2023-05-19T03:09:36.702Z,4.56
2023-05-19T03:10:36.678Z,4.59
2023-05-19T03:11:36.665Z,4.56
2023-05-19T03:12:36.653Z,4.49
2023-05-19T03:13:36.668Z,4.58
2023-05-19T03:14:36.608Z,4.55
2023-05-19T03:15:36.679Z,4.56
2023-05-19T03:16:36.646Z,4.55
2023-05-19T03:17:36.642Z,4.52
2023-05-19T03:18:36.599Z,4.61
2023-05-19T03:19:36.546Z,4.59
2023-05-19T03:20:36.527Z,4.55
2023-05-19T03:21:36.494Z,4.55
2023-05-19T03:22:36.475Z,4.51
2023-05-19T03:23:36.458Z,4.55
2023-05-19T03:24:36.445Z,4.53
2023-05-19T03:25:36.434Z,4.55
2023-05-19T03:26:36.411Z,4.58
2023-05-19T03:27:36.391Z,4.58
2023-05-19T03:28:36.376Z,4.56
2023-05-19T03:29:36.373Z,4.63
2023-05-19T03:30:36.343Z,4.55
2023-05-19T03:31:36.334Z,4.63
2023-05-19T03:32:36.379Z,4.66
2023-05-19T03:33:36.321Z,4.67
2023-05-19T03:34:36.265Z,4.71
2023-05-19T03:35:36.263Z,4.67
2023-05-19T03:36:36.244Z,4.61
2023-05-19T03:37:36.232Z,4.64
2023-05-19T03:38:36.201Z,4.66
2023-05-19T03:39:36.184Z,4.67
2023-05-19T03:40:36.171Z,4.67
2023-05-19T03:41:36.149Z,4.66
2023-05-19T03:42:36.137Z,4.70
2023-05-19T03:43:36.114Z,4.66
2023-05-19T03:44:36.103Z,4.66
2023-05-19T03:45:36.082Z,4.64
2023-05-19T03:46:36.060Z,4.66
2023-05-19T03:47:36.114Z,4.67
2023-05-19T03:48:36.023Z,4.71
2023-05-19T03:49:36.011Z,4.69
2023-05-19T03:50:35.995Z,4.67
2023-05-19T03:51:35.974Z,4.76
2023-05-19T03:52:35.961Z,4.74
2023-05-19T03:53:36.435Z,4.85
2023-05-19T03:54:37.200Z,4.86
2023-05-19T03:55:36.322Z,4.88
2023-05-19T03:56:36.187Z,4.83
2023-05-19T03:57:36.171Z,4.90
2023-05-19T03:58:36.122Z,4.95
2023-05-19T03:59:39.089Z,4.89
2023-05-19T04:00:39.791Z,4.95
2023-05-19T04:01:36.727Z,4.93
2023-05-19T04:02:36.036Z,5.03
2023-05-19T04:03:36.691Z,5.03
2023-05-19T04:04:37.077Z,4.98
2023-05-19T04:05:35.996Z,5.14
2023-05-19T04:06:36.129Z,5.13
2023-05-19T04:07:38.222Z,5.08
2023-05-19T04:08:35.679Z,5.16
2023-05-19T04:09:35.732Z,5.14
2023-05-19T04:10:35.649Z,5.28
2023-05-19T04:11:35.631Z,5.21
2023-05-19T04:12:35.623Z,5.26
2023-05-19T04:13:35.596Z,5.25
2023-05-19T04:14:35.605Z,5.31
2023-05-19T04:15:35.587Z,5.28
2023-05-19T04:16:35.541Z,5.39
2023-05-19T04:17:35.545Z,5.39
2023-05-19T04:18:35.521Z,5.47
2023-05-19T04:19:35.499Z,5.57
2023-05-19T04:20:35.473Z,5.57
2023-05-19T04:21:35.457Z,5.51
2023-05-19T04:22:35.446Z,5.71
2023-05-19T04:23:35.424Z,5.69
2023-05-19T04:24:35.424Z,5.72
2023-05-19T04:25:35.394Z,5.71
2023-05-19T04:26:35.378Z,5.77
2023-05-19T04:27:35.357Z,5.83
2023-05-19T04:28:35.391Z,5.92
2023-05-19T04:29:35.320Z,5.95
2023-05-19T04:30:35.420Z,6.04
2023-05-19T04:31:35.402Z,6.08
2023-05-19T04:32:35.273Z,6.10
2023-05-19T04:33:35.255Z,6.21
2023-05-19T04:34:35.237Z,6.21
2023-05-19T04:35:35.218Z,6.27
2023-05-19T04:36:35.228Z,6.32
2023-05-19T04:37:43.292Z,6.41
2023-05-19T04:38:35.526Z,6.44
2023-05-19T04:39:35.800Z,6.49
2023-05-19T04:40:35.652Z,6.53
2023-05-19T04:41:35.294Z,6.44
2023-05-19T04:42:35.239Z,6.60
2023-05-19T04:43:35.703Z,6.67
2023-05-19T04:44:35.255Z,6.62
2023-05-19T04:45:35.668Z,6.71
2023-05-19T04:46:36.334Z,6.81
2023-05-19T04:47:35.295Z,6.83
2023-05-19T04:48:35.147Z,6.88
2023-05-19T04:49:35.124Z,6.92
2023-05-19T04:50:35.341Z,6.96
2023-05-19T04:51:35.209Z,6.99
2023-05-19T04:52:35.134Z,7.02
2023-05-19T04:53:35.101Z,7.02
2023-05-19T04:54:35.908Z,7.11
2023-05-19T04:55:35.684Z,7.17
2023-05-19T04:56:34.918Z,7.18
2023-05-19T04:57:36.140Z,7.23
2023-05-19T04:58:36.245Z,7.29
2023-05-19T04:59:35.046Z,7.31
2023-05-19T05:00:34.914Z,7.35
2023-05-19T05:01:35.365Z,7.36
2023-05-19T05:02:35.311Z,7.46
2023-05-19T05:03:35.057Z,7.39
2023-05-19T05:04:34.851Z,7.49
2023-05-19T05:05:34.958Z,7.56
2023-05-19T05:06:34.778Z,7.59
2023-05-19T05:07:36.631Z,7.56
2023-05-19T05:08:37.308Z,7.57
2023-05-19T05:09:35.606Z,7.57
2023-05-19T05:10:34.963Z,7.59
2023-05-19T05:11:37.039Z,7.62
2023-05-19T05:12:35.708Z,7.70
2023-05-19T05:13:35.191Z,7.75
2023-05-19T05:14:35.570Z,7.79
2023-05-19T05:15:35.606Z,7.87
2023-05-19T05:16:34.795Z,7.88
2023-05-19T05:17:34.751Z,7.98
2023-05-19T05:18:34.525Z,7.94
2023-05-19T05:19:34.516Z,8.11
2023-05-19T05:20:34.792Z,8.20
2023-05-19T05:21:35.352Z,8.23
2023-05-19T05:22:36.200Z,8.34
2023-05-19T05:23:34.889Z,8.38
2023-05-19T05:24:34.569Z,8.38
2023-05-19T05:25:34.671Z,8.47
2023-05-19T05:26:34.469Z,8.54
2023-05-19T05:27:34.425Z,8.69
2023-05-19T05:28:34.692Z,8.67
2023-05-19T05:29:34.438Z,8.82
2023-05-19T05:30:34.393Z,8.91
2023-05-19T05:31:34.386Z,8.98
2023-05-19T05:32:34.424Z,9.10
2023-05-19T05:33:34.298Z,9.19
2023-05-19T05:34:34.244Z,9.26
2023-05-19T05:35:34.331Z,9.34
2023-05-19T05:36:34.210Z,9.47
2023-05-19T05:37:34.205Z,9.54
2023-05-19T05:38:34.175Z,9.67
2023-05-19T05:39:34.173Z,9.82
2023-05-19T05:40:34.152Z,9.85
2023-05-19T05:41:34.132Z,9.95
2023-05-19T05:42:34.116Z,10.10
2023-05-19T05:43:34.113Z,10.18
2023-05-19T05:44:34.084Z,10.33
2023-05-19T05:45:34.329Z,10.35
2023-05-19T05:46:34.103Z,10.60
2023-05-19T05:47:34.074Z,10.57
2023-05-19T05:48:34.032Z,10.74
2023-05-19T05:49:34.008Z,10.82
2023-05-19T05:50:33.997Z,11.00
2023-05-19T05:51:33.987Z,11.05
2023-05-19T05:52:34.000Z,11.25
2023-05-19T05:53:33.993Z,11.38
2023-05-19T05:54:34.042Z,11.58
2023-05-19T05:55:34.145Z,11.61
2023-05-19T05:56:33.951Z,11.71
2023-05-19T05:57:33.987Z,11.84
2023-05-19T05:58:34.877Z,11.97
2023-05-19T05:59:34.033Z,12.07
2023-05-19T06:00:34.066Z,12.17
2023-05-19T06:01:35.490Z,12.27
2023-05-19T06:02:33.915Z,12.38
2023-05-19T06:03:33.987Z,12.46
2023-05-19T06:04:33.807Z,12.61
2023-05-19T06:05:33.816Z,12.72
2023-05-19T06:06:33.905Z,12.80
2023-05-19T06:07:33.849Z,12.93
2023-05-19T06:08:34.883Z,13.08
2023-05-19T06:09:33.719Z,13.11
2023-05-19T06:10:33.952Z,13.18
2023-05-19T06:11:33.689Z,13.26
2023-05-19T06:12:33.693Z,13.27
2023-05-19T06:13:33.731Z,13.31
2023-05-19T06:14:33.649Z,13.31
2023-05-19T06:15:33.670Z,13.39
2023-05-19T06:16:34.277Z,13.41
2023-05-19T06:17:33.604Z,13.45
2023-05-19T06:18:33.594Z,13.41
2023-05-19T06:19:33.580Z,13.53
2023-05-19T06:20:33.846Z,13.49
2023-05-19T06:21:33.541Z,13.56
2023-05-19T06:22:33.532Z,13.49
2023-05-19T06:23:33.511Z,13.56
2023-05-19T06:24:33.540Z,13.64
2023-05-19T06:25:33.638Z,13.72
2023-05-19T06:26:33.471Z,13.72
2023-05-19T06:27:34.860Z,13.86
2023-05-19T06:28:33.437Z,13.95
2023-05-19T06:29:33.426Z,14.00
2023-05-19T06:30:33.654Z,14.10
2023-05-19T06:31:33.484Z,14.11
2023-05-19T06:32:33.435Z,14.25
2023-05-19T06:33:33.374Z,14.38
2023-05-19T06:34:33.384Z,14.50
2023-05-19T06:35:33.392Z,14.74
2023-05-19T06:36:33.571Z,14.97
2023-05-19T06:37:33.330Z,15.11
2023-05-19T06:38:33.306Z,15.28
2023-05-19T06:39:33.291Z,15.54
2023-05-19T06:40:33.524Z,15.73
2023-05-19T06:41:33.263Z,15.95
2023-05-19T06:42:33.324Z,15.92
2023-05-19T06:43:33.235Z,16.08
2023-05-19T06:44:33.226Z,16.21
2023-05-19T06:45:33.260Z,16.44
2023-05-19T06:46:33.242Z,16.54
2023-05-19T06:47:33.215Z,16.54
2023-05-19T06:48:33.173Z,16.59
2023-05-19T06:49:33.155Z,16.69
2023-05-19T06:50:33.376Z,16.80
2023-05-19T06:51:33.131Z,16.94
2023-05-19T06:52:33.130Z,17.08
2023-05-19T06:53:33.106Z,17.31
2023-05-19T06:54:33.089Z,17.59
2023-05-19T06:55:34.404Z,17.94
2023-05-19T06:56:33.088Z,18.20
2023-05-19T06:57:33.056Z,18.41
2023-05-19T06:58:33.040Z,18.60
2023-05-19T06:59:33.032Z,18.86
2023-05-19T07:00:33.177Z,19.37
2023-05-19T07:01:33.147Z,20.90
2023-05-19T07:02:33.099Z,22.85
2023-05-19T07:03:33.036Z,25.01
2023-05-19T07:04:32.972Z,25.37
2023-05-19T07:05:32.973Z,26.15
2023-05-19T07:06:32.950Z,25.85
2023-05-19T07:07:32.946Z,27.11
2023-05-19T07:08:33.034Z,28.26
2023-05-19T07:09:32.921Z,27.75
2023-05-19T07:10:33.034Z,27.36
2023-05-19T07:11:32.913Z,29.13
2023-05-19T07:12:32.884Z,30.13
2023-05-19T07:13:32.896Z,30.88
2023-05-19T07:14:32.865Z,30.20
2023-05-19T07:15:32.864Z,30.24
2023-05-19T07:16:32.870Z,29.69
2023-05-19T07:17:32.871Z,29.94
2023-05-19T07:18:32.864Z,30.14
2023-05-19T07:19:32.858Z,29.79
2023-05-19T07:20:33.021Z,32.75
2023-05-19T07:21:32.813Z,35.83
2023-05-19T07:22:32.796Z,37.43
2023-05-19T07:23:32.789Z,37.56
2023-05-19T07:24:32.788Z,38.20
2023-05-19T07:25:32.767Z,39.28
2023-05-19T07:26:32.760Z,39.62
2023-05-19T07:27:32.757Z,39.59
2023-05-19T07:28:32.742Z,41.09
2023-05-19T07:29:32.741Z,42.30
2023-05-19T07:30:33.009Z,43.25
2023-05-19T07:31:32.769Z,43.63
2023-05-19T07:32:32.762Z,44.12
2023-05-19T07:33:32.717Z,44.30
2023-05-19T07:34:32.705Z,44.75
2023-05-19T07:35:32.731Z,45.15
2023-05-19T07:36:32.692Z,45.56
2023-05-19T07:37:32.686Z,45.90
2023-05-19T07:38:32.739Z,46.15
2023-05-19T07:39:32.740Z,46.36
2023-05-19T07:40:32.851Z,46.36
2023-05-19T07:41:34.216Z,46.27
2023-05-19T07:42:32.667Z,46.61
2023-05-19T07:43:32.658Z,46.89
2023-05-19T07:44:32.654Z,47.01
2023-05-19T07:45:32.717Z,47.20
2023-05-19T07:46:32.687Z,47.20
2023-05-19T07:47:32.694Z,47.30
2023-05-19T07:48:32.639Z,47.51
2023-05-19T07:49:32.637Z,47.72
2023-05-19T07:50:32.748Z,47.94
2023-05-19T07:51:32.632Z,48.10
2023-05-19T07:52:32.643Z,48.35
2023-05-19T07:53:32.623Z,48.50
2023-05-19T07:54:32.634Z,48.60
2023-05-19T07:55:32.626Z,48.54
2023-05-19T07:56:32.629Z,48.68
2023-05-19T07:57:32.620Z,48.79
2023-05-19T07:58:32.626Z,49.09
2023-05-19T07:59:32.617Z,49.35
2023-05-19T08:00:33.088Z,49.67
2023-05-19T08:01:32.607Z,49.61
2023-05-19T08:02:32.682Z,49.59
2023-05-19T08:03:32.766Z,49.02
2023-05-19T08:04:32.616Z,47.84
2023-05-19T08:05:32.597Z,47.39
2023-05-19T08:06:32.601Z,47.93
2023-05-19T08:07:32.619Z,47.15
2023-05-19T08:08:32.640Z,45.95
2023-05-19T08:09:32.672Z,44.92
2023-05-19T08:10:32.691Z,43.73
2023-05-19T08:11:32.591Z,41.71
2023-05-19T08:12:32.611Z,40.36
2023-05-19T08:13:32.592Z,39.38
2023-05-19T08:14:32.600Z,39.09
2023-05-19T08:15:32.641Z,38.68
2023-05-19T08:16:32.626Z,38.58
2023-05-19T08:17:32.659Z,38.58
2023-05-19T08:18:32.614Z,38.27
2023-05-19T08:19:32.583Z,37.46
2023-05-19T08:20:32.840Z,36.68
2023-05-19T08:21:32.579Z,36.44
2023-05-19T08:22:32.585Z,35.71
2023-05-19T08:23:32.573Z,35.16
2023-05-19T08:24:32.570Z,34.72
2023-05-19T08:25:32.568Z,34.29
2023-05-19T08:26:32.558Z,34.11
2023-05-19T08:27:32.557Z,33.65
2023-05-19T08:28:32.653Z,33.37
2023-05-19T08:29:32.570Z,33.17
2023-05-19T08:30:32.733Z,33.16
2023-05-19T08:31:32.671Z,33.14
2023-05-19T08:32:32.569Z,33.14
2023-05-19T08:33:32.536Z,33.16
2023-05-19T08:34:32.531Z,32.96
2023-05-19T08:35:32.548Z,32.84
2023-05-19T08:36:32.525Z,37.22
2023-05-19T08:37:34.122Z,41.20
2023-05-19T08:38:32.519Z,44.04
2023-05-19T08:39:32.522Z,45.75
2023-05-19T08:40:32.730Z,44.61
2023-05-19T08:41:32.502Z,44.61
2023-05-19T08:42:32.514Z,46.87
2023-05-19T08:43:32.527Z,47.06
2023-05-19T08:44:32.501Z,45.90
2023-05-19T08:45:32.633Z,44.53
2023-05-19T08:46:32.518Z,44.19
2023-05-19T08:47:32.537Z,44.92
2023-05-19T08:48:32.489Z,44.59
2023-05-19T08:49:32.486Z,44.19
2023-05-19T08:50:32.707Z,44.21
2023-05-19T08:51:32.500Z,44.08
2023-05-19T08:52:32.479Z,46.51
2023-05-19T08:53:34.548Z,45.47
2023-05-19T08:54:32.470Z,44.59
2023-05-19T08:55:32.554Z,43.84
2023-05-19T08:56:32.467Z,43.22
2023-05-19T08:57:32.474Z,42.55
2023-05-19T08:58:32.469Z,41.76
2023-05-19T08:59:32.469Z,41.32
2023-05-19T09:00:32.653Z,41.22
2023-05-19T09:01:32.577Z,40.79
2023-05-19T09:02:32.475Z,40.66
2023-05-19T09:03:32.521Z,40.72
2023-05-19T09:04:32.534Z,40.56
2023-05-19T09:05:32.603Z,40.05
2023-05-19T09:06:32.459Z,39.78
2023-05-19T09:07:32.449Z,39.35
2023-05-19T09:08:32.466Z,38.98
2023-05-19T09:09:32.447Z,38.97
2023-05-19T09:10:32.455Z,38.93
2023-05-19T09:11:32.462Z,38.78
2023-05-19T09:12:32.434Z,38.73
2023-05-19T09:13:32.467Z,38.29
2023-05-19T09:14:32.433Z,38.21
2023-05-19T09:15:32.744Z,37.81
2023-05-19T09:16:32.528Z,37.71
2023-05-19T09:17:32.444Z,37.39
2023-05-19T09:18:32.430Z,36.81
2023-05-19T09:19:32.463Z,36.34
2023-05-19T09:20:32.418Z,36.15
2023-05-19T09:21:32.436Z,35.99
2023-05-19T09:22:32.416Z,36.04
2023-05-19T09:23:32.425Z,36.51
2023-05-19T09:24:32.417Z,37.56
2023-05-19T09:25:32.608Z,37.87
2023-05-19T09:26:32.412Z,39.08
2023-05-19T09:27:32.400Z,39.56
2023-05-19T09:28:32.399Z,40.09
2023-05-19T09:29:32.480Z,40.41
2023-05-19T09:30:32.400Z,40.27
2023-05-19T09:31:32.443Z,40.48
2023-05-19T09:32:32.565Z,39.93
2023-05-19T09:33:32.417Z,39.97
2023-05-19T09:34:32.388Z,40.59
2023-05-19T09:35:32.927Z,41.34
2023-05-19T09:36:32.376Z,41.96
2023-05-19T09:37:32.378Z,43.36
2023-05-19T09:38:32.773Z,44.75
2023-05-19T09:39:32.568Z,47.40
2023-05-19T09:40:32.510Z,49.61
2023-05-19T09:41:32.677Z,50.76
2023-05-19T09:42:32.406Z,51.30
2023-05-19T09:43:32.545Z,51.34
2023-05-19T09:44:32.529Z,51.48
2023-05-19T09:45:32.515Z,51.51
2023-05-19T09:46:32.440Z,51.80
2023-05-19T09:47:32.459Z,50.54
2023-05-19T09:48:32.575Z,50.07
2023-05-19T09:49:32.452Z,49.77
2023-05-19T09:50:32.566Z,48.80
2023-05-19T09:51:32.365Z,49.00
2023-05-19T09:52:32.650Z,49.62
2023-05-19T09:53:32.639Z,49.69
2023-05-19T09:54:32.942Z,49.34
2023-05-19T09:55:32.654Z,48.28
2023-05-19T09:56:32.395Z,47.67
2023-05-19T09:57:32.542Z,47.60
2023-05-19T09:58:32.621Z,47.75
2023-05-19T09:59:33.673Z,47.98
2023-05-19T10:00:32.937Z,48.20
2023-05-19T10:01:54.544Z,48.39
2023-05-19T10:02:35.655Z,49.24
2023-05-19T10:03:57.303Z,49.93
2023-05-19T10:04:33.379Z,50.73
2023-05-19T10:05:35.978Z,51.11
2023-05-19T10:06:36.931Z,51.80
2023-05-19T10:07:34.351Z,52.66
2023-05-19T10:08:33.511Z,53.65
2023-05-19T10:09:35.769Z,54.86
2023-05-19T10:10:33.357Z,55.52
2023-05-19T10:11:32.795Z,55.97
2023-05-19T10:12:35.293Z,56.43
2023-05-19T10:13:32.732Z,56.83
2023-05-19T10:14:32.768Z,56.32
2023-05-19T10:16:32.588Z,54.31
2023-05-19T10:17:36.111Z,53.11
2023-05-19T10:18:40.334Z,52.38
2023-05-19T10:19:35.802Z,52.61
2023-05-19T10:20:32.995Z,52.82
2023-05-19T10:21:56.884Z,53.21
2023-05-19T10:22:44.484Z,53.26
2023-05-19T10:44:59.953Z,40.52
2023-05-19T10:46:01.725Z,39.62
2023-05-19T10:47:00.612Z,38.59
2023-05-19T10:48:00.287Z,37.86
2023-05-19T10:49:00.510Z,37.27
2023-05-19T10:50:00.646Z,36.71
2023-05-19T10:51:01.912Z,36.33
2023-05-19T10:51:59.758Z,36.08
2023-05-19T10:53:01.074Z,35.98
2023-05-19T10:53:59.955Z,35.69
2023-05-19T10:55:00.031Z,35.55
2023-05-19T10:56:05.599Z,35.21
2023-05-19T10:57:04.076Z,35.13
2023-05-19T10:58:05.420Z,34.99
2023-05-19T11:12:59.268Z,46.11
2023-05-19T11:13:57.205Z,46.37
2023-05-19T11:14:57.202Z,47.08
2023-05-19T11:15:57.198Z,46.55
2023-05-19T11:16:57.567Z,46.40
2023-05-19T11:17:57.514Z,46.55
2023-05-19T11:18:57.335Z,46.89
2023-05-19T11:19:57.463Z,47.62
2023-05-19T11:20:57.244Z,48.04
2023-05-19T11:21:57.317Z,48.93
2023-05-19T11:22:57.338Z,49.74
2023-05-19T11:24:00.002Z,50.39
2023-05-19T11:24:57.214Z,50.18
2023-05-19T11:25:57.462Z,50.60
2023-05-19T11:26:57.255Z,51.37
2023-05-19T11:27:57.296Z,51.44
2023-05-19T11:28:57.291Z,51.52
2023-05-19T11:29:57.279Z,51.77
2023-05-19T11:30:57.266Z,52.12
2023-05-19T11:31:57.323Z,52.56
2023-05-19T11:32:57.269Z,51.91
2023-05-19T11:33:57.317Z,51.07
2023-05-19T11:34:57.279Z,49.76
2023-05-19T11:35:57.329Z,48.68
2023-05-19T11:36:57.257Z,47.51
2023-05-19T11:37:57.310Z,45.82
2023-05-19T11:38:57.216Z,45.19
2023-05-19T11:40:19.650Z,45.85
2023-05-19T11:40:58.781Z,46.70
2023-05-19T11:41:57.393Z,47.08
2023-05-19T11:42:57.272Z,47.53
2023-05-19T11:43:57.238Z,47.81
2023-05-19T11:44:57.502Z,48.09
2023-05-19T11:45:57.378Z,48.31
2023-05-19T11:46:57.351Z,47.15
2023-05-19T11:48:02.133Z,45.41
2023-05-19T11:48:57.296Z,44.68
2023-05-19T11:49:57.364Z,44.31
2023-05-19T11:50:57.527Z,44.16
2023-05-19T11:51:57.547Z,45.04
2023-05-19T11:52:57.549Z,46.13
2023-05-19T11:53:59.472Z,46.27
2023-05-19T11:54:57.363Z,44.47
2023-05-19T11:55:57.297Z,42.86
2023-05-19T11:56:57.400Z,41.65
2023-05-19T11:59:20.705Z,42.04
2023-05-19T11:59:57.712Z,42.33
2023-05-19T12:00:58.183Z,41.35
2023-05-19T12:01:58.419Z,40.13
2023-05-19T12:02:57.338Z,39.50
2023-05-19T12:03:58.509Z,40.45
2023-05-19T12:04:57.547Z,41.51
2023-05-19T12:05:59.511Z,42.27
2023-05-19T12:06:57.407Z,42.67
2023-05-19T12:07:57.496Z,41.99
2023-05-19T12:08:57.317Z,40.67
2023-05-19T12:09:57.562Z,39.52
2023-05-19T12:10:57.483Z,38.62
2023-05-19T12:11:57.437Z,38.00
2023-05-19T12:12:57.392Z,37.07
2023-05-19T12:13:57.393Z,36.30
2023-05-19T12:14:57.370Z,35.73
2023-05-19T12:15:57.504Z,35.80
2023-05-19T12:16:57.324Z,37.04
2023-05-19T12:17:57.401Z,36.41
2023-05-19T12:18:57.448Z,35.65
2023-05-19T12:19:57.400Z,35.23
2023-05-19T12:20:57.447Z,34.99
2023-05-19T12:21:57.418Z,35.76
2023-05-19T12:22:57.423Z,35.94
2023-05-19T12:23:57.482Z,36.40
2023-05-19T12:24:58.634Z,37.18
2023-05-19T12:25:57.475Z,37.26
2023-05-19T12:26:57.337Z,37.41
2023-05-19T12:27:58.148Z,37.61
2023-05-19T12:28:57.381Z,37.45
2023-05-19T12:29:57.490Z,36.83
2023-05-19T12:30:57.445Z,36.83
2023-05-19T12:31:57.406Z,37.05
2023-05-19T12:32:57.538Z,36.95
2023-05-19T12:33:58.419Z,36.33
2023-05-19T12:34:57.368Z,35.69
2023-05-19T12:35:57.353Z,35.08
2023-05-19T12:36:57.360Z,34.58
2023-05-19T12:37:57.245Z,34.21
2023-05-19T12:38:57.237Z,33.89
2023-05-19T12:39:57.251Z,33.84
2023-05-19T12:40:57.337Z,34.02
2023-05-19T12:41:57.304Z,34.11
2023-05-19T12:42:57.223Z,34.34
2023-05-19T12:43:57.349Z,34.51
2023-05-19T12:44:57.213Z,34.27
2023-05-19T12:45:57.439Z,33.85
2023-05-19T12:46:57.185Z,33.61
2023-05-19T12:47:57.234Z,33.44
2023-05-19T12:48:57.366Z,34.02
2023-05-19T12:49:57.221Z,34.34
2023-05-19T12:50:57.316Z,34.52
2023-05-19T12:51:57.332Z,34.97
2023-05-19T12:52:57.329Z,35.05
2023-05-19T12:53:57.249Z,35.38
2023-05-19T12:54:57.325Z,35.60
2023-05-19T12:55:57.276Z,35.80
2023-05-19T12:56:57.286Z,36.18
2023-05-19T12:57:57.581Z,36.49
2023-05-19T12:58:57.266Z,36.70
2023-05-19T12:59:57.273Z,36.83
2023-05-19T13:00:57.457Z,36.83
2023-05-19T13:01:57.307Z,36.46
2023-05-19T13:02:57.456Z,35.89
2023-05-19T13:03:57.271Z,35.80
2023-05-19T13:04:57.738Z,35.75
2023-05-19T13:05:57.265Z,35.80
2023-05-19T13:06:57.745Z,35.80
2023-05-19T13:07:57.231Z,35.80
2023-05-19T13:08:57.258Z,35.61
2023-05-19T13:09:57.243Z,35.45
2023-05-19T13:10:57.145Z,35.36
2023-05-19T13:11:57.121Z,34.89
2023-05-19T13:12:57.258Z,34.29
2023-05-19T13:13:57.207Z,33.95
2023-05-19T13:14:57.187Z,33.47
2023-05-19T13:15:57.333Z,33.09
2023-05-19T13:16:57.364Z,32.65
2023-05-19T13:17:57.254Z,32.19
2023-05-19T13:18:57.264Z,31.77
2023-05-19T13:19:57.224Z,31.29
2023-05-19T13:20:57.318Z,31.03
2023-05-19T13:21:57.173Z,30.72
2023-05-19T13:22:57.249Z,30.45
2023-05-19T13:23:57.220Z,30.22
2023-05-19T13:24:57.180Z,30.13
2023-05-19T13:25:57.157Z,29.90
2023-05-19T13:26:57.119Z,29.66
2023-05-19T13:27:57.121Z,29.48
2023-05-19T13:28:57.237Z,29.26
2023-05-19T13:29:57.213Z,29.20
2023-05-19T13:30:57.404Z,29.14
2023-05-19T13:31:58.110Z,29.10
2023-05-19T13:32:57.537Z,28.90
2023-05-19T13:33:57.231Z,28.79
2023-05-19T13:34:57.301Z,28.72
2023-05-19T13:35:57.125Z,28.67
2023-05-19T13:36:57.212Z,28.63
2023-05-19T13:37:57.099Z,28.54
2023-05-19T13:38:57.139Z,28.51
2023-05-19T13:39:58.106Z,28.48
2023-05-19T13:40:57.039Z,28.35